sensor_id;sensor_type;location;lat;lon;timestamp;pressure;altitude;pressure_sealevel;temperature;humidity
21395;BME280;10858;42.714;23.180;2023-03-16T00:02:11;93560.59;;;4.90;80.13
21395;BME280;10858;42.714;23.180;2023-03-16T00:04:38;93561.47;;;4.69;80.92
21395;BME280;10858;42.714;23.180;2023-03-16T00:07:06;93566.25;;;4.53;81.23
21395;BME280;10858;42.714;23.180;2023-03-16T00:09:32;93554.16;;;4.61;81.01
21395;BME280;10858;42.714;23.180;2023-03-16T00:12:02;93567.28;;;4.83;80.52
21395;BME280;10858;42.714;23.180;2023-03-16T00:14:30;93571.97;;;4.69;81.27
21395;BME280;10858;42.714;23.180;2023-03-16T00:16:56;93565.88;;;4.68;80.65
21395;BME280;10858;42.714;23.180;2023-03-16T00:19:22;93574.69;;;4.67;79.51
21395;BME280;10858;42.714;23.180;2023-03-16T00:21:52;93578.28;;;4.66;79.56
21395;BME280;10858;42.714;23.180;2023-03-16T00:24:19;93573.75;;;4.57;79.70
21395;BME280;10858;42.714;23.180;2023-03-16T00:26:48;93577.09;;;4.59;80.38
21395;BME280;10858;42.714;23.180;2023-03-16T00:29:15;93584.00;;;4.49;80.29
21395;BME280;10858;42.714;23.180;2023-03-16T00:31:41;93581.97;;;4.42;80.11
21395;BME280;10858;42.714;23.180;2023-03-16T00:34:10;93586.56;;;4.05;81.30
21395;BME280;10858;42.714;23.180;2023-03-16T00:36:37;93583.47;;;4.11;81.89
21395;BME280;10858;42.714;23.180;2023-03-16T00:39:04;93585.88;;;4.14;81.72
21395;BME280;10858;42.714;23.180;2023-03-16T00:41:31;93594.78;;;3.89;81.95
21395;BME280;10858;42.714;23.180;2023-03-16T00:44:05;93588.59;;;4.01;81.28
21395;BME280;10858;42.714;23.180;2023-03-16T00:46:34;93592.78;;;4.15;81.26
21395;BME280;10858;42.714;23.180;2023-03-16T00:49:01;93605.19;;;4.13;81.88
21395;BME280;10858;42.714;23.180;2023-03-16T00:51:27;93600.22;;;4.32;81.22
21395;BME280;10858;42.714;23.180;2023-03-16T00:53:55;93604.53;;;4.44;80.60
21395;BME280;10858;42.714;23.180;2023-03-16T00:56:21;93601.16;;;4.20;81.23
21395;BME280;10858;42.714;23.180;2023-03-16T00:58:47;93592.78;;;4.15;81.37
21395;BME280;10858;42.714;23.180;2023-03-16T01:01:18;93600.75;;;3.91;81.41
21395;BME280;10858;42.714;23.180;2023-03-16T01:03:44;93602.13;;;3.73;82.56
21395;BME280;10858;42.714;23.180;2023-03-16T01:06:13;93599.63;;;3.72;82.80
21395;BME280;10858;42.714;23.180;2023-03-16T01:08:42;93595.81;;;3.76;82.96
21395;BME280;10858;42.714;23.180;2023-03-16T01:11:14;93592.84;;;3.45;83.16
21395;BME280;10858;42.714;23.180;2023-03-16T01:13:42;93595.88;;;3.28;83.32
21395;BME280;10858;42.714;23.180;2023-03-16T01:16:09;93604.47;;;3.30;84.07
21395;BME280;10858;42.714;23.180;2023-03-16T01:18:35;93605.84;;;3.23;83.39
21395;BME280;10858;42.714;23.180;2023-03-16T01:21:04;93602.38;;;3.47;83.56
21395;BME280;10858;42.714;23.180;2023-03-16T01:23:31;93608.81;;;3.42;83.20
21395;BME280;10858;42.714;23.180;2023-03-16T01:25:58;93600.91;;;3.66;82.98
21395;BME280;10858;42.714;23.180;2023-03-16T01:28:27;93606.00;;;3.57;81.64
21395;BME280;10858;42.714;23.180;2023-03-16T01:30:57;93600.69;;;3.45;82.45
21395;BME280;10858;42.714;23.180;2023-03-16T01:33:25;93606.66;;;3.47;81.86
21395;BME280;10858;42.714;23.180;2023-03-16T01:35:53;93608.84;;;3.54;82.37
21395;BME280;10858;42.714;23.180;2023-03-16T01:38:20;93607.91;;;3.55;81.48
21395;BME280;10858;42.714;23.180;2023-03-16T01:40:48;93609.56;;;3.56;81.54
21395;BME280;10858;42.714;23.180;2023-03-16T01:43:17;93621.22;;;3.28;82.10
21395;BME280;10858;42.714;23.180;2023-03-16T01:51:30;93628.44;;;3.01;82.95
21395;BME280;10858;42.714;23.180;2023-03-16T01:54:10;93634.09;;;3.07;83.97
21395;BME280;10858;42.714;23.180;2023-03-16T01:56:50;93638.56;;;3.41;82.63
21395;BME280;10858;42.714;23.180;2023-03-16T01:59:22;93645.22;;;3.34;82.42
21395;BME280;10858;42.714;23.180;2023-03-16T02:01:51;93637.00;;;3.15;83.70
21395;BME280;10858;42.714;23.180;2023-03-16T02:07:12;93648.84;;;3.44;83.47
21395;BME280;10858;42.714;23.180;2023-03-16T02:09:44;93645.88;;;3.49;83.34
21395;BME280;10858;42.714;23.180;2023-03-16T02:12:15;93656.59;;;3.46;83.26
21395;BME280;10858;42.714;23.180;2023-03-16T02:14:47;93654.00;;;3.33;84.10
21395;BME280;10858;42.714;23.180;2023-03-16T02:17:15;93652.38;;;3.67;83.02
21395;BME280;10858;42.714;23.180;2023-03-16T02:22:22;93653.50;;;3.76;82.57
21395;BME280;10858;42.714;23.180;2023-03-16T02:24:51;93662.25;;;3.87;82.25
21395;BME280;10858;42.714;23.180;2023-03-16T02:30:02;93665.19;;;3.72;82.87
21395;BME280;10858;42.714;23.180;2023-03-16T02:32:31;93668.22;;;3.55;82.69
21395;BME280;10858;42.714;23.180;2023-03-16T02:34:58;93670.75;;;3.67;82.66
21395;BME280;10858;42.714;23.180;2023-03-16T02:37:26;93679.25;;;3.71;82.61
21395;BME280;10858;42.714;23.180;2023-03-16T02:39:53;93679.97;;;3.73;82.50
21395;BME280;10858;42.714;23.180;2023-03-16T02:42:21;93681.59;;;3.63;82.38
21395;BME280;10858;42.714;23.180;2023-03-16T02:44:55;93676.50;;;3.49;83.53
21395;BME280;10858;42.714;23.180;2023-03-16T02:47:34;93681.19;;;3.56;83.39
21395;BME280;10858;42.714;23.180;2023-03-16T02:50:02;93686.16;;;3.48;83.53
21395;BME280;10858;42.714;23.180;2023-03-16T02:52:35;93677.28;;;3.62;83.56
21395;BME280;10858;42.714;23.180;2023-03-16T02:55:20;93687.00;;;3.49;82.98
21395;BME280;10858;42.714;23.180;2023-03-16T02:57:46;93684.25;;;3.50;83.04
21395;BME280;10858;42.714;23.180;2023-03-16T03:00:13;93687.59;;;3.52;83.11
21395;BME280;10858;42.714;23.180;2023-03-16T03:02:44;93687.00;;;3.49;82.98
21395;BME280;10858;42.714;23.180;2023-03-16T03:05:11;93683.50;;;3.24;83.35
21395;BME280;10858;42.714;23.180;2023-03-16T03:07:45;93693.34;;;3.21;84.06
21395;BME280;10858;42.714;23.180;2023-03-16T03:10:12;93697.06;;;3.06;84.27
21395;BME280;10858;42.714;23.180;2023-03-16T03:12:38;93694.78;;;3.01;84.11
21395;BME280;10858;42.714;23.180;2023-03-16T03:15:05;93703.88;;;3.08;84.16
21395;BME280;10858;42.714;23.180;2023-03-16T03:17:31;93704.69;;;3.09;84.15
21395;BME280;10858;42.714;23.180;2023-03-16T03:19:58;93703.34;;;3.03;83.45
21395;BME280;10858;42.714;23.180;2023-03-16T03:22:26;93700.56;;;2.94;83.69
21395;BME280;10858;42.714;23.180;2023-03-16T03:24:52;93714.91;;;2.88;83.63
21395;BME280;10858;42.714;23.180;2023-03-16T03:27:20;93716.78;;;2.61;84.02
21395;BME280;10858;42.714;23.180;2023-03-16T03:29:47;93717.63;;;2.49;85.25
21395;BME280;10858;42.714;23.180;2023-03-16T03:32:19;93711.66;;;2.47;84.95
21395;BME280;10858;42.714;23.180;2023-03-16T03:34:45;93725.19;;;2.53;84.94
21395;BME280;10858;42.714;23.180;2023-03-16T03:37:11;93727.59;;;2.44;85.10
21395;BME280;10858;42.714;23.180;2023-03-16T03:39:38;93725.56;;;2.35;85.87
21395;BME280;10858;42.714;23.180;2023-03-16T03:42:05;93732.09;;;2.42;85.75
21395;BME280;10858;42.714;23.180;2023-03-16T03:44:35;93725.94;;;2.68;84.74
21395;BME280;10858;42.714;23.180;2023-03-16T03:47:02;93725.06;;;2.68;84.04
21395;BME280;10858;42.714;23.180;2023-03-16T03:49:28;93722.03;;;2.74;83.41
21395;BME280;10858;42.714;23.180;2023-03-16T03:51:55;93730.94;;;2.46;84.40
21395;BME280;10858;42.714;23.180;2023-03-16T03:54:24;93731.56;;;2.75;83.91
21395;BME280;10858;42.714;23.180;2023-03-16T03:56:53;93730.94;;;2.84;83.60
21395;BME280;10858;42.714;23.180;2023-03-16T03:59:19;93740.88;;;2.91;83.16
21395;BME280;10858;42.714;23.180;2023-03-16T04:01:47;93739.34;;;2.76;83.33
21395;BME280;10858;42.714;23.180;2023-03-16T04:04:14;93737.34;;;2.92;82.33
21395;BME280;10858;42.714;23.180;2023-03-16T04:06:40;93741.59;;;3.18;81.50
21395;BME280;10858;42.714;23.180;2023-03-16T04:09:07;93748.94;;;3.13;81.18
21395;BME280;10858;42.714;23.180;2023-03-16T04:11:33;93753.97;;;2.79;82.70
21395;BME280;10858;42.714;23.180;2023-03-16T04:13:59;93748.13;;;3.00;81.59
21395;BME280;10858;42.714;23.180;2023-03-16T04:16:26;93743.91;;;2.85;82.06
21395;BME280;10858;42.714;23.180;2023-03-16T04:18:55;93754.72;;;2.68;82.36
21395;BME280;10858;42.714;23.180;2023-03-16T04:21:21;93754.28;;;2.87;82.43
21395;BME280;10858;42.714;23.180;2023-03-16T04:23:49;93756.59;;;3.04;81.83
21395;BME280;10858;42.714;23.180;2023-03-16T04:26:19;93770.06;;;3.35;80.91
21395;BME280;10858;42.714;23.180;2023-03-16T04:28:46;93765.06;;;3.32;81.10
21395;BME280;10858;42.714;23.180;2023-03-16T04:31:12;93771.75;;;3.36;80.61
21395;BME280;10858;42.714;23.180;2023-03-16T04:33:39;93771.34;;;3.30;80.50
21395;BME280;10858;42.714;23.180;2023-03-16T04:36:07;93776.91;;;3.25;80.86
21395;BME280;10858;42.714;23.180;2023-03-16T04:38:34;93785.41;;;3.04;81.16
21395;BME280;10858;42.714;23.180;2023-03-16T04:41:02;93780.72;;;2.96;81.16
21395;BME280;10858;42.714;23.180;2023-03-16T04:43:29;93786.13;;;2.93;81.17
21395;BME280;10858;42.714;23.180;2023-03-16T04:45:59;93790.72;;;2.65;81.39
21395;BME280;10858;42.714;23.180;2023-03-16T04:48:29;93796.91;;;2.64;82.42
21395;BME280;10858;42.714;23.180;2023-03-16T04:50:55;93796.72;;;2.79;82.41
21395;BME280;10858;42.714;23.180;2023-03-16T04:53:21;93798.19;;;3.08;81.45
21395;BME280;10858;42.714;23.180;2023-03-16T04:55:48;93802.78;;;2.80;81.19
21395;BME280;10858;42.714;23.180;2023-03-16T04:58:14;93799.53;;;2.89;81.73
21395;BME280;10858;42.714;23.180;2023-03-16T05:00:40;93807.22;;;3.04;81.24
21395;BME280;10858;42.714;23.180;2023-03-16T05:03:08;93801.66;;;2.84;81.79
21395;BME280;10858;42.714;23.180;2023-03-16T05:05:36;93815.38;;;2.87;82.33
21395;BME280;10858;42.714;23.180;2023-03-16T05:08:03;93812.88;;;2.98;81.30
21395;BME280;10858;42.714;23.180;2023-03-16T05:10:31;93814.09;;;2.93;82.04
21395;BME280;10858;42.714;23.180;2023-03-16T05:12:58;93807.09;;;2.93;81.62
21395;BME280;10858;42.714;23.180;2023-03-16T05:15:24;93814.41;;;2.76;81.46
21395;BME280;10858;42.714;23.180;2023-03-16T05:17:51;93819.78;;;2.99;81.25
21395;BME280;10858;42.714;23.180;2023-03-16T05:20:17;93827.72;;;2.85;81.83
21395;BME280;10858;42.714;23.180;2023-03-16T05:22:45;93826.25;;;2.81;81.49
21395;BME280;10858;42.714;23.180;2023-03-16T05:25:14;93830.88;;;2.78;82.27
21395;BME280;10858;42.714;23.180;2023-03-16T05:27:42;93826.38;;;2.80;81.60
21395;BME280;10858;42.714;23.180;2023-03-16T05:30:10;93839.34;;;2.81;82.66
21395;BME280;10858;42.714;23.180;2023-03-16T05:32:37;93846.69;;;2.89;82.68
21395;BME280;10858;42.714;23.180;2023-03-16T05:35:04;93844.66;;;2.67;83.16
21395;BME280;10858;42.714;23.180;2023-03-16T05:37:32;93840.91;;;2.71;82.72
21395;BME280;10858;42.714;23.180;2023-03-16T05:40:00;93852.25;;;2.84;82.77
21395;BME280;10858;42.714;23.180;2023-03-16T05:42:26;93849.22;;;3.03;82.04
21395;BME280;10858;42.714;23.180;2023-03-16T05:44:53;93852.97;;;2.74;82.47
21395;BME280;10858;42.714;23.180;2023-03-16T05:47:19;93857.06;;;2.90;82.52
21395;BME280;10858;42.714;23.180;2023-03-16T05:49:45;93855.50;;;3.25;81.09
21395;BME280;10858;42.714;23.180;2023-03-16T05:52:12;93860.25;;;3.20;80.33
21395;BME280;10858;42.714;23.180;2023-03-16T05:54:38;93863.59;;;3.22;80.61
21395;BME280;10858;42.714;23.180;2023-03-16T05:57:04;93871.66;;;2.94;81.67
21395;BME280;10858;42.714;23.180;2023-03-16T05:59:32;93872.63;;;3.18;80.69
21395;BME280;10858;42.714;23.180;2023-03-16T06:01:58;93871.56;;;3.33;80.74
21395;BME280;10858;42.714;23.180;2023-03-16T06:04:24;93872.28;;;3.23;80.76
21395;BME280;10858;42.714;23.180;2023-03-16T06:06:50;93870.09;;;3.29;80.73
21395;BME280;10858;42.714;23.180;2023-03-16T06:09:16;93873.34;;;3.20;80.54
21395;BME280;10858;42.714;23.180;2023-03-16T06:11:43;93879.84;;;3.27;80.53
21395;BME280;10858;42.714;23.180;2023-03-16T06:14:09;93880.88;;;3.12;80.84
21395;BME280;10858;42.714;23.180;2023-03-16T06:16:35;93888.50;;;3.03;80.73
21395;BME280;10858;42.714;23.180;2023-03-16T06:19:01;93887.34;;;3.07;80.87
21395;BME280;10858;42.714;23.180;2023-03-16T06:21:27;93890.53;;;3.24;80.66
21395;BME280;10858;42.714;23.180;2023-03-16T06:23:53;93896.59;;;3.12;80.40
21395;BME280;10858;42.714;23.180;2023-03-16T06:26:20;93888.13;;;3.47;79.80
21395;BME280;10858;42.714;23.180;2023-03-16T06:28:47;93893.16;;;3.24;79.88
21395;BME280;10858;42.714;23.180;2023-03-16T06:31:13;93894.09;;;3.49;79.95
21395;BME280;10858;42.714;23.180;2023-03-16T06:33:40;93903.22;;;3.56;78.92
21395;BME280;10858;42.714;23.180;2023-03-16T06:36:06;93913.38;;;3.47;79.43
21395;BME280;10858;42.714;23.180;2023-03-16T06:38:33;93909.72;;;3.37;79.18
21395;BME280;10858;42.714;23.180;2023-03-16T06:40:59;93920.91;;;3.27;79.36
21395;BME280;10858;42.714;23.180;2023-03-16T06:43:26;93926.50;;;3.22;80.52
21395;BME280;10858;42.714;23.180;2023-03-16T06:45:52;93918.84;;;3.32;79.51
21395;BME280;10858;42.714;23.180;2023-03-16T06:48:18;93926.34;;;3.11;80.30
21395;BME280;10858;42.714;23.180;2023-03-16T06:50:45;93931.09;;;3.31;80.88
21395;BME280;10858;42.714;23.180;2023-03-16T06:53:11;93930.59;;;3.77;79.55
21395;BME280;10858;42.714;23.180;2023-03-16T06:55:38;93941.78;;;3.91;78.14
21395;BME280;10858;42.714;23.180;2023-03-16T06:58:04;93938.66;;;3.74;79.38
21395;BME280;10858;42.714;23.180;2023-03-16T07:00:30;93941.66;;;4.05;79.07
21395;BME280;10858;42.714;23.180;2023-03-16T07:02:59;93951.88;;;3.72;78.68
21395;BME280;10858;42.714;23.180;2023-03-16T07:05:25;93948.00;;;3.53;79.15
21395;BME280;10858;42.714;23.180;2023-03-16T07:07:51;93943.28;;;3.58;78.64
21395;BME280;10858;42.714;23.180;2023-03-16T07:10:19;93952.38;;;3.39;79.31
21395;BME280;10858;42.714;23.180;2023-03-16T07:12:46;93957.13;;;3.60;79.17
21395;BME280;10858;42.714;23.180;2023-03-16T07:15:12;93958.19;;;3.82;78.36
21395;BME280;10858;42.714;23.180;2023-03-16T07:17:40;93955.19;;;4.12;77.90
21395;BME280;10858;42.714;23.180;2023-03-16T07:20:08;93965.69;;;3.87;77.85
21395;BME280;10858;42.714;23.180;2023-03-16T07:22:36;93966.53;;;4.12;78.17
21395;BME280;10858;42.714;23.180;2023-03-16T07:25:03;93967.81;;;3.82;77.96
21395;BME280;10858;42.714;23.180;2023-03-16T07:27:29;93967.03;;;3.04;79.06
21395;BME280;10858;42.714;23.180;2023-03-16T07:29:56;93972.47;;;3.14;80.10
21395;BME280;10858;42.714;23.180;2023-03-16T07:32:22;93973.25;;;3.28;80.31
21395;BME280;10858;42.714;23.180;2023-03-16T07:34:48;93974.47;;;3.10;80.35
21395;BME280;10858;42.714;23.180;2023-03-16T07:37:15;93972.03;;;3.07;79.45
21395;BME280;10858;42.714;23.180;2023-03-16T07:39:41;93978.16;;;2.81;80.87
21395;BME280;10858;42.714;23.180;2023-03-16T07:42:07;93978.50;;;3.28;80.33
21395;BME280;10858;42.714;23.180;2023-03-16T07:44:34;93978.81;;;3.36;78.43
21395;BME280;10858;42.714;23.180;2023-03-16T07:47:00;93980.72;;;3.60;78.06
21395;BME280;10858;42.714;23.180;2023-03-16T07:49:27;93987.19;;;3.41;78.33
21395;BME280;10858;42.714;23.180;2023-03-16T07:51:53;93994.00;;;3.31;80.16
21395;BME280;10858;42.714;23.180;2023-03-16T07:54:19;94000.53;;;3.51;79.46
21395;BME280;10858;42.714;23.180;2023-03-16T07:56:45;93990.78;;;3.91;78.54
21395;BME280;10858;42.714;23.180;2023-03-16T07:59:11;93996.56;;;4.08;77.82
21395;BME280;10858;42.714;23.180;2023-03-16T08:01:37;94000.97;;;3.70;77.66
21395;BME280;10858;42.714;23.180;2023-03-16T08:04:04;93992.59;;;3.53;78.63
21395;BME280;10858;42.714;23.180;2023-03-16T08:06:30;94002.25;;;3.65;78.68
21395;BME280;10858;42.714;23.180;2023-03-16T08:08:56;94000.97;;;3.70;79.01
21395;BME280;10858;42.714;23.180;2023-03-16T08:11:22;94001.81;;;3.71;77.80
21395;BME280;10858;42.714;23.180;2023-03-16T08:13:52;93997.94;;;3.64;77.54
21395;BME280;10858;42.714;23.180;2023-03-16T08:16:24;93997.31;;;3.73;77.94
21395;BME280;10858;42.714;23.180;2023-03-16T08:18:54;93998.38;;;3.83;77.65
21395;BME280;10858;42.714;23.180;2023-03-16T08:21:20;93997.63;;;4.06;77.86
21395;BME280;10858;42.714;23.180;2023-03-16T08:23:47;94001.19;;;3.92;76.98
21395;BME280;10858;42.714;23.180;2023-03-16T08:26:17;94011.59;;;4.06;76.86
21395;BME280;10858;42.714;23.180;2023-03-16T08:28:45;94017.03;;;4.16;76.64
21395;BME280;10858;42.714;23.180;2023-03-16T08:31:13;94017.13;;;4.02;76.99
21395;BME280;10858;42.714;23.180;2023-03-16T08:33:41;94015.75;;;4.09;77.75
21395;BME280;10858;42.714;23.180;2023-03-16T08:36:08;94017.63;;;4.32;75.31
21395;BME280;10858;42.714;23.180;2023-03-16T08:38:37;94018.19;;;4.24;75.31
21395;BME280;10858;42.714;23.180;2023-03-16T08:41:05;94024.16;;;4.26;76.32
21395;BME280;10858;42.714;23.180;2023-03-16T08:43:31;94024.94;;;4.52;75.37
21395;BME280;10858;42.714;23.180;2023-03-16T08:45:58;94028.16;;;4.07;75.01
21395;BME280;10858;42.714;23.180;2023-03-16T08:48:26;94028.06;;;3.71;76.46
21395;BME280;10858;42.714;23.180;2023-03-16T08:50:54;94037.34;;;4.50;76.13
21395;BME280;10858;42.714;23.180;2023-03-16T08:53:20;94031.41;;;3.73;76.77
21395;BME280;10858;42.714;23.180;2023-03-16T08:55:46;94029.63;;;3.86;77.10
21395;BME280;10858;42.714;23.180;2023-03-16T08:58:13;94027.94;;;3.72;77.76
21395;BME280;10858;42.714;23.180;2023-03-16T09:00:40;94031.84;;;4.04;77.12
21395;BME280;10858;42.714;23.180;2023-03-16T09:03:07;94042.53;;;4.01;76.77
21395;BME280;10858;42.714;23.180;2023-03-16T09:05:35;94033.00;;;4.62;75.62
21395;BME280;10858;42.714;23.180;2023-03-16T09:08:01;94040.91;;;4.49;75.71
21395;BME280;10858;42.714;23.180;2023-03-16T09:10:28;94039.56;;;4.56;74.59
21395;BME280;10858;42.714;23.180;2023-03-16T09:12:57;94046.94;;;4.26;75.57
21395;BME280;10858;42.714;23.180;2023-03-16T09:15:23;94031.50;;;4.34;75.36
21395;BME280;10858;42.714;23.180;2023-03-16T09:17:49;94040.34;;;3.83;76.79
21395;BME280;10858;42.714;23.180;2023-03-16T09:20:16;94036.84;;;3.70;77.34
21395;BME280;10858;42.714;23.180;2023-03-16T09:22:43;94050.19;;;3.92;76.59
21395;BME280;10858;42.714;23.180;2023-03-16T09:25:10;94052.41;;;3.98;75.57
21395;BME280;10858;42.714;23.180;2023-03-16T09:27:37;94038.13;;;3.77;75.83
21395;BME280;10858;42.714;23.180;2023-03-16T09:30:04;94048.81;;;3.99;74.58
21395;BME280;10858;42.714;23.180;2023-03-16T09:32:33;94049.25;;;4.18;74.23
21395;BME280;10858;42.714;23.180;2023-03-16T09:34:59;94039.84;;;4.64;75.46
21395;BME280;10858;42.714;23.180;2023-03-16T09:37:26;94052.72;;;4.18;73.88
21395;BME280;10858;42.714;23.180;2023-03-16T09:39:52;94052.81;;;4.17;74.64
21395;BME280;10858;42.714;23.180;2023-03-16T09:42:36;94059.28;;;4.49;74.08
21395;BME280;10858;42.714;23.180;2023-03-16T09:45:40;94046.44;;;5.06;73.33
21395;BME280;10858;42.714;23.180;2023-03-16T09:48:10;94053.13;;;4.86;74.12
21395;BME280;10858;42.714;23.180;2023-03-16T09:50:41;94051.50;;;5.09;72.64
21395;BME280;10858;42.714;23.180;2023-03-16T09:53:29;94055.22;;;5.41;73.40
21395;BME280;10858;42.714;23.180;2023-03-16T09:56:38;94070.25;;;5.15;72.67
21395;BME280;10858;42.714;23.180;2023-03-16T09:58:58;94069.78;;;5.10;71.68
21395;BME280;10858;42.714;23.180;2023-03-16T10:09:51;94064.50;;;5.58;71.67
21395;BME280;10858;42.714;23.180;2023-03-16T10:12:21;94066.41;;;5.56;69.83
21395;BME280;10858;42.714;23.180;2023-03-16T10:17:39;94064.03;;;5.64;68.80
21395;BME280;10858;42.714;23.180;2023-03-16T10:20:15;94067.34;;;5.78;70.64
21395;BME280;10858;42.714;23.180;2023-03-16T10:22:44;94071.13;;;5.98;69.36
21395;BME280;10858;42.714;23.180;2023-03-16T10:25:42;94064.56;;;5.69;68.41
21395;BME280;10858;42.714;23.180;2023-03-16T10:28:23;94064.69;;;5.78;67.82
21395;BME280;10858;42.714;23.180;2023-03-16T10:30:53;94070.75;;;5.91;67.70
21395;BME280;10858;42.714;23.180;2023-03-16T10:33:27;94062.03;;;5.91;66.87
21395;BME280;10858;42.714;23.180;2023-03-16T10:38:56;94068.06;;;5.80;66.58
21395;BME280;10858;42.714;23.180;2023-03-16T10:41:32;94072.94;;;5.74;68.34
21395;BME280;10858;42.714;23.180;2023-03-16T10:47:23;94067.22;;;5.80;66.98
21395;BME280;10858;42.714;23.180;2023-03-16T10:50:31;94061.31;;;5.89;65.60
21395;BME280;10858;42.714;23.180;2023-03-16T10:53:18;94061.78;;;5.36;65.44
21395;BME280;10858;42.714;23.180;2023-03-16T10:56:07;94065.81;;;5.63;66.17
21395;BME280;10858;42.714;23.180;2023-03-16T10:58:41;94058.19;;;5.71;67.46
21395;BME280;10858;42.714;23.180;2023-03-16T11:01:26;94066.91;;;5.84;66.56
21395;BME280;10858;42.714;23.180;2023-03-16T11:03:56;94061.66;;;5.61;68.06
21395;BME280;10858;42.714;23.180;2023-03-16T11:06:31;94060.16;;;5.22;68.39
21395;BME280;10858;42.714;23.180;2023-03-16T11:09:11;94061.94;;;5.45;68.70
21395;BME280;10858;42.714;23.180;2023-03-16T11:11:49;94067.00;;;5.59;66.73
21395;BME280;10858;42.714;23.180;2023-03-16T11:14:24;94062.41;;;5.74;65.66
21395;BME280;10858;42.714;23.180;2023-03-16T11:17:08;94062.47;;;5.61;66.00
21395;BME280;10858;42.714;23.180;2023-03-16T11:19:55;94067.91;;;5.71;68.17
21395;BME280;10858;42.714;23.180;2023-03-16T11:22:26;94073.78;;;5.27;66.91
21395;BME280;10858;42.714;23.180;2023-03-16T11:27:43;94073.03;;;5.01;70.02
21395;BME280;10858;42.714;23.180;2023-03-16T11:30:55;94069.81;;;5.22;69.83
21395;BME280;10858;42.714;23.180;2023-03-16T11:33:26;94070.72;;;5.09;69.30
21395;BME280;10858;42.714;23.180;2023-03-16T11:39:09;94068.91;;;5.57;68.32
21395;BME280;10858;42.714;23.180;2023-03-16T11:49:56;94065.69;;;5.06;69.04
21395;BME280;10858;42.714;23.180;2023-03-16T12:07:14;94077.88;;;5.07;67.64
21395;BME280;10858;42.714;23.180;2023-03-16T12:15:17;94084.84;;;4.96;68.06
21395;BME280;10858;42.714;23.180;2023-03-16T12:17:53;94083.97;;;5.08;68.59
21395;BME280;10858;42.714;23.180;2023-03-16T12:21:00;94087.50;;;4.83;68.67
21395;BME280;10858;42.714;23.180;2023-03-16T12:23:51;94088.09;;;4.99;69.21
21395;BME280;10858;42.714;23.180;2023-03-16T12:26:38;94092.28;;;5.38;68.01
21395;BME280;10858;42.714;23.180;2023-03-16T12:40:47;94114.66;;;5.07;69.96
21395;BME280;10858;42.714;23.180;2023-03-16T12:46:56;94103.53;;;4.30;73.37
21395;BME280;10858;42.714;23.180;2023-03-16T12:49:33;94114.56;;;4.48;73.05
21395;BME280;10858;42.714;23.180;2023-03-16T12:52:07;94113.72;;;5.08;71.35
21395;BME280;10858;42.714;23.180;2023-03-16T12:54:35;94116.25;;;5.34;71.77
21395;BME280;10858;42.714;23.180;2023-03-16T12:57:08;94122.06;;;5.02;69.85
21395;BME280;10858;42.714;23.180;2023-03-16T12:59:45;94119.28;;;5.16;69.35
21395;BME280;10858;42.714;23.180;2023-03-16T13:02:23;94113.88;;;4.94;70.07
21395;BME280;10858;42.714;23.180;2023-03-16T13:05:14;94128.63;;;4.72;72.14
21395;BME280;10858;42.714;23.180;2023-03-16T13:07:50;94128.59;;;4.84;70.28
21395;BME280;10858;42.714;23.180;2023-03-16T13:10:18;94121.03;;;4.92;70.65
21395;BME280;10858;42.714;23.180;2023-03-16T13:12:50;94129.38;;;4.36;71.11
21395;BME280;10858;42.714;23.180;2023-03-16T13:20:48;94140.78;;;4.85;73.01
21395;BME280;10858;42.714;23.180;2023-03-16T13:23:20;94137.88;;;5.13;72.31
21395;BME280;10858;42.714;23.180;2023-03-16T13:26:16;94145.72;;;5.39;70.20
21395;BME280;10858;42.714;23.180;2023-03-16T13:28:48;94136.19;;;4.89;72.23
21395;BME280;10858;42.714;23.180;2023-03-16T13:31:35;94137.56;;;5.18;71.97
21395;BME280;10858;42.714;23.180;2023-03-16T13:34:04;94136.53;;;5.21;71.96
21395;BME280;10858;42.714;23.180;2023-03-16T13:36:32;94146.06;;;5.22;70.88
21395;BME280;10858;42.714;23.180;2023-03-16T13:41:39;94150.94;;;5.15;70.39
21395;BME280;10858;42.714;23.180;2023-03-16T13:44:13;94150.06;;;4.66;72.06
21395;BME280;10858;42.714;23.180;2023-03-16T13:46:41;94148.59;;;4.87;72.69
21395;BME280;10858;42.714;23.180;2023-03-16T13:49:12;94149.06;;;5.04;71.81
21395;BME280;10858;42.714;23.180;2023-03-16T13:51:40;94142.44;;;5.35;71.04
21395;BME280;10858;42.714;23.180;2023-03-16T13:54:27;94162.38;;;5.27;70.55
21395;BME280;10858;42.714;23.180;2023-03-16T13:56:57;94156.47;;;4.74;73.12
21395;BME280;10858;42.714;23.180;2023-03-16T13:59:24;94158.66;;;4.55;73.24
21395;BME280;10858;42.714;23.180;2023-03-16T14:01:55;94171.06;;;4.66;73.78
21395;BME280;10858;42.714;23.180;2023-03-16T14:04:25;94164.88;;;4.42;74.12
21395;BME280;10858;42.714;23.180;2023-03-16T14:06:59;94166.56;;;4.43;73.23
21395;BME280;10858;42.714;23.180;2023-03-16T14:09:31;94165.06;;;4.26;74.14
21395;BME280;10858;42.714;23.180;2023-03-16T14:11:59;94168.22;;;4.31;74.25
21395;BME280;10858;42.714;23.180;2023-03-16T14:14:38;94168.03;;;4.59;73.47
21395;BME280;10858;42.714;23.180;2023-03-16T14:17:15;94165.59;;;4.81;74.04
21395;BME280;10858;42.714;23.180;2023-03-16T14:19:48;94172.44;;;4.96;72.48
21395;BME280;10858;42.714;23.180;2023-03-16T14:22:23;94163.19;;;4.41;72.46
21395;BME280;10858;42.714;23.180;2023-03-16T14:24:58;94175.63;;;3.99;75.21
21395;BME280;10858;42.714;23.180;2023-03-16T14:30:17;94171.91;;;4.41;74.86
21395;BME280;10858;42.714;23.180;2023-03-16T14:33:02;94177.69;;;4.46;73.61
21395;BME280;10858;42.714;23.180;2023-03-16T14:35:31;94179.78;;;4.28;73.39
21395;BME280;10858;42.714;23.180;2023-03-16T14:40:53;94183.53;;;4.12;74.04
21395;BME280;10858;42.714;23.180;2023-03-16T14:43:31;94184.31;;;4.52;73.09
21395;BME280;10858;42.714;23.180;2023-03-16T14:46:00;94182.19;;;4.69;71.48
21395;BME280;10858;42.714;23.180;2023-03-16T14:48:28;94185.75;;;5.06;71.35
21395;BME280;10858;42.714;23.180;2023-03-16T14:50:57;94183.97;;;4.81;72.13